Time;durP1;ratioP1;P1;durP2;ratioP2;P2;SDS_P1;SDS_P2;PMS_P1;PMS_P2;Temp;Humidity;BMP_temperature;BMP_pressure;BME280_temperature;BME280_humidity;BME280_pressure;Samples;Min_cycle;Max_cycle;Signal;HPM_P1;HPM_P2
2023/08/13 00:00:16;;;;;;;15.45;3.72;;;;;;;;;;5110846;28;20493;-66
2023/08/13 00:02:42;;;;;;;11.48;3.25;;;;;;;;;;5109985;28;20048;-66
2023/08/13 00:05:08;;;;;;;11.35;2.60;;;;;;;;;;5110390;28;20074;-66
2023/08/13 00:07:34;;;;;;;13.65;3.05;;;;;;;;;;5110273;28;20042;-66
2023/08/13 00:10:00;;;;;;;11.52;3.00;;;;;;;;;;5110241;28;20039;-66
2023/08/13 00:12:26;;;;;;;10.15;3.13;;;;;;;;;;5110479;28;20039;-66
2023/08/13 00:14:52;;;;;;;9.70;2.70;;;;;;;;;;5110185;28;20040;-66
2023/08/13 00:17:18;;;;;;;11.52;2.65;;;;;;;;;;5110129;28;20037;-66
2023/08/13 00:19:44;;;;;;;9.18;2.28;;;;;;;;;;5110561;28;20032;-66
2023/08/13 00:22:10;;;;;;;16.23;3.45;;;;;;;;;;5110258;28;20622;-66
2023/08/13 00:24:36;;;;;;;10.68;2.53;;;;;;;;;;5109743;28;20113;-66
2023/08/13 00:27:02;;;;;;;15.02;2.80;;;;;;;;;;5110302;28;20043;-66
2023/08/13 00:29:28;;;;;;;12.00;2.42;;;;;;;;;;5110297;28;20039;-66
2023/08/13 00:31:55;;;;;;;9.20;2.30;;;;;;;;;;5110288;28;20036;-66
2023/08/13 00:34:21;;;;;;;11.07;2.63;;;;;;;;;;5110284;28;20043;-66
2023/08/13 00:36:47;;;;;;;11.88;3.13;;;;;;;;;;5111133;28;20047;-66
2023/08/13 00:39:13;;;;;;;8.95;2.40;;;;;;;;;;5114165;28;20050;-66
2023/08/13 00:41:39;;;;;;;12.43;3.33;;;;;;;;;;5114414;28;20157;-66
2023/08/13 00:44:05;;;;;;;10.50;2.80;;;;;;;;;;5114007;28;20047;-66
2023/08/13 00:46:32;;;;;;;10.90;2.28;;;;;;;;;;5113814;28;20084;-66
2023/08/13 00:48:59;;;;;;;10.73;3.30;;;;;;;;;;5113853;28;20028;-66
2023/08/13 00:51:25;;;;;;;11.52;2.88;;;;;;;;;;5113155;28;20043;-66
2023/08/13 00:53:52;;;;;;;9.90;2.90;;;;;;;;;;5112546;28;20075;-66
2023/08/13 00:56:18;;;;;;;7.47;2.53;;;;;;;;;;5114148;28;20446;-66
2023/08/13 00:58:45;;;;;;;15.57;3.00;;;;;;;;;;5114125;28;20465;-66
2023/08/13 01:01:11;;;;;;;11.10;2.63;;;;;;;;;;5113892;28;20466;-66
2023/08/13 01:03:38;;;;;;;15.85;3.13;;;;;;;;;;5113633;28;20046;-66
2023/08/13 01:06:14;;;;;;;13.18;3.08;;;;;;;;;;5113827;28;20053;-66
2023/08/13 01:08:46;;;;;;;14.73;2.88;;;;;;;;;;5112879;28;20088;-66
2023/08/13 01:11:36;;;;;;;12.85;3.10;;;;;;;;;;5113508;28;20081;-66
2023/08/13 01:14:12;;;;;;;12.80;3.00;;;;;;;;;;5107859;27;20409;-66
2023/08/13 01:16:42;;;;;;;15.63;2.97;;;;;;;;;;5112949;28;20185;-66
2023/08/13 01:19:11;;;;;;;11.35;3.05;;;;;;;;;;5112257;28;20077;-66
2023/08/13 01:21:37;;;;;;;12.15;2.95;;;;;;;;;;5113925;28;20384;-66
2023/08/13 01:24:03;;;;;;;12.63;3.47;;;;;;;;;;5112599;28;20046;-66
2023/08/13 01:26:32;;;;;;;11.32;2.70;;;;;;;;;;5112949;28;20043;-66
2023/08/13 01:29:06;;;;;;;11.88;2.90;;;;;;;;;;5111953;28;20567;-66
2023/08/13 01:31:36;;;;;;;13.38;3.38;;;;;;;;;;5112873;28;20039;-66
2023/08/13 01:34:02;;;;;;;10.07;2.75;;;;;;;;;;5113057;27;20058;-66
2023/08/13 01:36:29;;;;;;;13.90;2.60;;;;;;;;;;5113012;28;20036;-66
2023/08/13 01:38:55;;;;;;;14.10;3.15;;;;;;;;;;5112545;28;20077;-66
2023/08/13 01:41:21;;;;;;;9.18;2.58;;;;;;;;;;5112909;28;20062;-66
2023/08/13 01:43:47;;;;;;;17.95;3.25;;;;;;;;;;5113470;28;20119;-66
2023/08/13 01:46:14;;;;;;;12.30;3.13;;;;;;;;;;5112506;28;20398;-66
2023/08/13 01:48:40;;;;;;;15.77;3.35;;;;;;;;;;5112342;28;20431;-66
2023/08/13 01:51:06;;;;;;;11.25;2.75;;;;;;;;;;5113102;28;20123;-66
2023/08/13 01:53:32;;;;;;;10.85;3.10;;;;;;;;;;5112353;28;20126;-66
2023/08/13 01:55:58;;;;;;;14.27;2.53;;;;;;;;;;5112967;28;20131;-66
2023/08/13 01:58:24;;;;;;;13.82;2.92;;;;;;;;;;5111351;28;20127;-66
2023/08/13 02:00:50;;;;;;;14.70;3.28;;;;;;;;;;5112281;28;20043;-66
2023/08/13 02:03:16;;;;;;;12.32;3.00;;;;;;;;;;5112278;28;20036;-66
2023/08/13 02:05:42;;;;;;;11.45;2.95;;;;;;;;;;5111126;28;20063;-66
2023/08/13 02:08:08;;;;;;;16.20;2.53;;;;;;;;;;5111868;28;20119;-66
2023/08/13 02:10:34;;;;;;;10.25;2.90;;;;;;;;;;5110845;28;20144;-66
2023/08/13 02:13:00;;;;;;;15.77;3.50;;;;;;;;;;5111809;28;20051;-66
2023/08/13 02:15:26;;;;;;;16.02;3.28;;;;;;;;;;5112532;28;20078;-66
2023/08/13 02:17:52;;;;;;;14.60;3.95;;;;;;;;;;5112448;28;20093;-66
2023/08/13 02:20:18;;;;;;;12.05;3.28;;;;;;;;;;5112456;28;20043;-66
2023/08/13 02:22:44;;;;;;;12.82;3.20;;;;;;;;;;5111733;28;20071;-66
2023/08/13 02:25:10;;;;;;;10.35;2.35;;;;;;;;;;5111760;28;20090;-66
2023/08/13 02:27:36;;;;;;;13.75;2.72;;;;;;;;;;5110505;28;20070;-66
2023/08/13 02:30:03;;;;;;;13.50;3.22;;;;;;;;;;5111564;28;20480;-66
2023/08/13 02:32:29;;;;;;;9.73;2.63;;;;;;;;;;5111957;28;20120;-66
2023/08/13 02:34:55;;;;;;;13.15;3.70;;;;;;;;;;5111716;28;20035;-66
2023/08/13 02:37:21;;;;;;;14.00;3.50;;;;;;;;;;5111275;28;20035;-66
2023/08/13 02:39:47;;;;;;;15.35;3.65;;;;;;;;;;5111651;28;20038;-66
2023/08/13 02:42:13;;;;;;;15.98;3.17;;;;;;;;;;5111526;28;20036;-66
2023/08/13 02:44:39;;;;;;;12.13;3.28;;;;;;;;;;5111005;28;20242;-66
2023/08/13 02:47:05;;;;;;;13.48;3.38;;;;;;;;;;5111279;28;20036;-66
2023/08/13 02:49:31;;;;;;;11.60;2.80;;;;;;;;;;5110944;28;20036;-66
2023/08/13 02:51:57;;;;;;;15.55;3.50;;;;;;;;;;5111021;28;20038;-66
2023/08/13 02:54:23;;;;;;;16.45;3.38;;;;;;;;;;5111244;28;20039;-66
2023/08/13 02:56:49;;;;;;;10.95;3.35;;;;;;;;;;5111110;28;20043;-66
2023/08/13 02:59:15;;;;;;;17.15;3.83;;;;;;;;;;5109696;28;20040;-66
2023/08/13 03:01:44;;;;;;;13.32;3.45;;;;;;;;;;5110910;28;20039;-66
2023/08/13 03:04:10;;;;;;;9.15;3.30;;;;;;;;;;5110648;28;20061;-66
2023/08/13 03:06:36;;;;;;;15.02;3.38;;;;;;;;;;5110455;28;20039;-66
2023/08/13 03:09:02;;;;;;;14.90;3.75;;;;;;;;;;5110279;28;20036;-66
2023/08/13 03:11:28;;;;;;;12.88;3.50;;;;;;;;;;5110816;28;20078;-66
2023/08/13 03:13:54;;;;;;;12.25;3.72;;;;;;;;;;5110599;28;20057;-66
2023/08/13 03:16:20;;;;;;;15.38;3.58;;;;;;;;;;5111189;28;20493;-66
2023/08/13 03:18:46;;;;;;;15.05;3.78;;;;;;;;;;5110952;28;20049;-66
2023/08/13 03:21:12;;;;;;;12.25;3.65;;;;;;;;;;5110428;28;20069;-66
2023/08/13 03:23:38;;;;;;;17.52;3.70;;;;;;;;;;5110649;28;20035;-66
2023/08/13 03:26:04;;;;;;;12.25;3.88;;;;;;;;;;5110668;28;20470;-66
2023/08/13 03:28:30;;;;;;;14.45;3.72;;;;;;;;;;5110432;28;20042;-66
2023/08/13 03:31:00;;;;;;;9.82;3.10;;;;;;;;;;5110714;28;20406;-66
2023/08/13 03:33:26;;;;;;;15.50;4.00;;;;;;;;;;5111020;28;20044;-66
2023/08/13 03:35:52;;;;;;;13.73;3.92;;;;;;;;;;5109887;28;20111;-66
2023/08/13 03:38:18;;;;;;;14.57;3.50;;;;;;;;;;5110382;28;20511;-66
2023/08/13 03:40:44;;;;;;;15.77;3.58;;;;;;;;;;5108880;28;20075;-66
2023/08/13 03:43:10;;;;;;;14.82;3.70;;;;;;;;;;5109788;28;20039;-66
2023/08/13 03:45:36;;;;;;;14.18;3.85;;;;;;;;;;5110400;28;20045;-66
2023/08/13 03:48:03;;;;;;;12.75;3.65;;;;;;;;;;5110465;28;20040;-66
2023/08/13 03:50:28;;;;;;;15.02;4.07;;;;;;;;;;5109918;28;20040;-66
2023/08/13 03:52:54;;;;;;;14.73;3.50;;;;;;;;;;5110414;28;20043;-66
2023/08/13 03:55:20;;;;;;;8.80;3.45;;;;;;;;;;5110016;28;20062;-66
2023/08/13 03:57:46;;;;;;;19.60;3.72;;;;;;;;;;5109740;28;20044;-66
2023/08/13 04:00:12;;;;;;;12.88;3.60;;;;;;;;;;5110096;28;20516;-66
2023/08/13 04:02:39;;;;;;;13.18;3.40;;;;;;;;;;5091573;28;20123;-66
2023/08/13 04:05:06;;;;;;;13.88;3.10;;;;;;;;;;5109976;28;20035;-66
2023/08/13 04:07:32;;;;;;;14.13;3.42;;;;;;;;;;5109920;28;20036;-66
2023/08/13 04:09:58;;;;;;;16.13;3.67;;;;;;;;;;5109643;28;20405;-66
2023/08/13 04:12:24;;;;;;;17.75;3.83;;;;;;;;;;5109236;28;20028;-66
2023/08/13 04:14:50;;;;;;;22.02;4.68;;;;;;;;;;5109961;28;20150;-66
2023/08/13 04:17:16;;;;;;;15.30;3.40;;;;;;;;;;5110000;28;20052;-66
2023/08/13 04:19:42;;;;;;;10.50;3.30;;;;;;;;;;5108248;28;20065;-66
2023/08/13 04:22:08;;;;;;;12.65;3.80;;;;;;;;;;5109554;28;20043;-66
2023/08/13 04:24:34;;;;;;;12.57;3.22;;;;;;;;;;5109069;28;20040;-66
2023/08/13 04:27:00;;;;;;;15.70;3.78;;;;;;;;;;5109247;28;20046;-66
2023/08/13 04:29:26;;;;;;;11.68;3.58;;;;;;;;;;5109794;28;20035;-66
2023/08/13 04:31:52;;;;;;;10.63;3.75;;;;;;;;;;5109342;28;20082;-66
2023/08/13 04:34:18;;;;;;;14.02;4.20;;;;;;;;;;5109501;28;20046;-66
2023/08/13 04:36:44;;;;;;;14.82;4.03;;;;;;;;;;5109107;28;20062;-66
2023/08/13 04:39:10;;;;;;;15.73;3.60;;;;;;;;;;5109771;28;20088;-66
2023/08/13 04:41:36;;;;;;;10.40;2.97;;;;;;;;;;5109775;28;20050;-66
2023/08/13 04:44:02;;;;;;;11.65;3.33;;;;;;;;;;5109026;28;20046;-66
2023/08/13 04:46:28;;;;;;;14.30;3.45;;;;;;;;;;5109737;28;20386;-66
2023/08/13 04:48:54;;;;;;;17.92;4.10;;;;;;;;;;5108055;28;20035;-66
2023/08/13 04:51:20;;;;;;;18.92;3.88;;;;;;;;;;5108922;28;20139;-66
2023/08/13 04:53:46;;;;;;;11.98;3.20;;;;;;;;;;5109521;28;20041;-66
2023/08/13 04:56:12;;;;;;;8.75;3.13;;;;;;;;;;5109482;28;20120;-66
2023/08/13 04:58:38;;;;;;;9.93;3.58;;;;;;;;;;5109304;28;20086;-66
2023/08/13 05:01:04;;;;;;;12.88;4.13;;;;;;;;;;5109350;28;20136;-66
2023/08/13 05:03:32;;;;;;;10.23;3.65;;;;;;;;;;5109296;28;20537;-66
2023/08/13 05:05:58;;;;;;;15.25;3.60;;;;;;;;;;5108731;28;20057;-66
2023/08/13 05:08:24;;;;;;;13.57;3.72;;;;;;;;;;5109153;28;20040;-66
2023/08/13 05:10:50;;;;;;;15.30;3.47;;;;;;;;;;5109045;28;20416;-66
2023/08/13 05:13:16;;;;;;;8.77;3.53;;;;;;;;;;5108395;28;20055;-66
2023/08/13 05:15:42;;;;;;;10.80;3.15;;;;;;;;;;5109660;28;20079;-66
2023/08/13 05:18:09;;;;;;;15.60;3.60;;;;;;;;;;5109633;28;20137;-66
2023/08/13 05:20:35;;;;;;;13.35;3.67;;;;;;;;;;5141869;27;20048;-66
2023/08/13 05:23:00;;;;;;;9.13;2.90;;;;;;;;;;5109769;28;20043;-66
2023/08/13 05:25:27;;;;;;;12.35;3.95;;;;;;;;;;5112590;28;20032;-66
2023/08/13 05:27:53;;;;;;;10.32;3.60;;;;;;;;;;5112528;28;20040;-66
2023/08/13 05:30:19;;;;;;;14.52;3.42;;;;;;;;;;5112859;28;20046;-66
2023/08/13 05:32:46;;;;;;;13.02;3.65;;;;;;;;;;5111138;28;20040;-66
2023/08/13 05:35:12;;;;;;;9.50;3.38;;;;;;;;;;5112284;28;20043;-66
2023/08/13 05:37:38;;;;;;;18.13;4.20;;;;;;;;;;5112857;28;20509;-66
2023/08/13 05:40:05;;;;;;;9.85;3.22;;;;;;;;;;5112714;28;20070;-66
2023/08/13 05:42:31;;;;;;;12.90;3.75;;;;;;;;;;5112245;28;20031;-66
2023/08/13 05:44:57;;;;;;;20.27;5.03;;;;;;;;;;5112618;28;20046;-66
2023/08/13 05:47:23;;;;;;;15.50;4.32;;;;;;;;;;5112447;28;20051;-66
2023/08/13 05:49:49;;;;;;;9.52;3.63;;;;;;;;;;5112038;28;20032;-66
2023/08/13 05:52:15;;;;;;;18.15;4.30;;;;;;;;;;5112562;28;20040;-66
2023/08/13 05:54:41;;;;;;;12.80;3.63;;;;;;;;;;5112225;28;20402;-66
2023/08/13 05:57:08;;;;;;;13.38;3.58;;;;;;;;;;5112386;28;20040;-66
2023/08/13 05:59:33;;;;;;;14.93;4.13;;;;;;;;;;5112296;28;20050;-66
2023/08/13 06:01:59;;;;;;;12.90;4.00;;;;;;;;;;5112111;28;20035;-66
2023/08/13 06:04:25;;;;;;;17.50;4.28;;;;;;;;;;5111307;28;20039;-66
2023/08/13 06:06:51;;;;;;;14.93;4.13;;;;;;;;;;5112119;28;20047;-66
2023/08/13 06:09:17;;;;;;;18.27;4.78;;;;;;;;;;5111944;28;20039;-66
2023/08/13 06:11:43;;;;;;;12.15;3.70;;;;;;;;;;5111373;28;20043;-66
2023/08/13 06:14:09;;;;;;;12.35;3.70;;;;;;;;;;5111998;28;20074;-66
2023/08/13 06:16:36;;;;;;;13.70;3.92;;;;;;;;;;5112283;28;20043;-66
2023/08/13 06:19:02;;;;;;;17.85;4.88;;;;;;;;;;5111788;28;20047;-66
2023/08/13 06:21:28;;;;;;;14.07;3.83;;;;;;;;;;5111809;28;20463;-66
2023/08/13 06:23:55;;;;;;;8.40;3.80;;;;;;;;;;5111715;28;20051;-66
2023/08/13 06:26:20;;;;;;;15.70;4.35;;;;;;;;;;5098678;28;20070;-66
2023/08/13 06:28:46;;;;;;;11.20;3.70;;;;;;;;;;5091773;28;20074;-66
2023/08/13 06:31:13;;;;;;;13.35;4.18;;;;;;;;;;5091592;28;20039;-66
2023/08/13 06:33:39;;;;;;;15.00;3.90;;;;;;;;;;5123711;27;20060;-66
2023/08/13 06:36:05;;;;;;;16.85;4.47;;;;;;;;;;5090989;28;20093;-66
2023/08/13 06:38:32;;;;;;;14.00;4.45;;;;;;;;;;5091388;28;20039;-66
2023/08/13 06:41:05;;;;;;;13.43;4.40;;;;;;;;;;5091170;28;20048;-66
2023/08/13 06:43:32;;;;;;;12.23;4.00;;;;;;;;;;5091157;28;20059;-66
2023/08/13 06:45:58;;;;;;;13.43;4.40;;;;;;;;;;5091305;28;20044;-66
2023/08/13 06:48:24;;;;;;;11.55;4.30;;;;;;;;;;5090903;28;20039;-66
2023/08/13 06:50:54;;;;;;;13.15;4.65;;;;;;;;;;5091386;28;20040;-66
2023/08/13 06:53:19;;;;;;;15.35;4.50;;;;;;;;;;5090808;28;20044;-66
2023/08/13 06:55:46;;;;;;;13.65;4.32;;;;;;;;;;5090673;28;20040;-66
2023/08/13 06:58:12;;;;;;;10.20;3.67;;;;;;;;;;5090686;28;20063;-66
2023/08/13 07:00:38;;;;;;;14.43;4.10;;;;;;;;;;5123255;27;20429;-66
2023/08/13 07:03:04;;;;;;;13.38;4.82;;;;;;;;;;5090066;28;20051;-66
2023/08/13 07:05:30;;;;;;;14.57;4.35;;;;;;;;;;5091149;28;20036;-66
2023/08/13 07:07:56;;;;;;;11.10;4.13;;;;;;;;;;5095241;28;20061;-66
2023/08/13 07:10:22;;;;;;;11.07;4.07;;;;;;;;;;5110847;28;20043;-66
2023/08/13 07:12:48;;;;;;;13.20;4.35;;;;;;;;;;5110916;28;20040;-66
2023/08/13 07:15:14;;;;;;;13.30;4.53;;;;;;;;;;5111277;28;20070;-66
2023/08/13 07:17:40;;;;;;;15.00;4.22;;;;;;;;;;5110661;28;20130;-66
2023/08/13 07:20:10;;;;;;;16.75;4.88;;;;;;;;;;5110858;28;20042;-66
2023/08/13 07:22:37;;;;;;;15.98;4.78;;;;;;;;;;5111299;28;20486;-66
2023/08/13 07:25:05;;;;;;;14.07;3.72;;;;;;;;;;5110250;28;20051;-66
2023/08/13 07:27:31;;;;;;;14.65;3.90;;;;;;;;;;5110704;28;20443;-66
2023/08/13 07:29:57;;;;;;;8.35;3.33;;;;;;;;;;5110827;28;20039;-66
2023/08/13 07:32:23;;;;;;;12.20;3.28;;;;;;;;;;5110623;28;20035;-66
2023/08/13 07:34:49;;;;;;;8.88;2.97;;;;;;;;;;5110981;28;20050;-66
2023/08/13 07:37:15;;;;;;;10.63;3.25;;;;;;;;;;5110831;28;20036;-66
2023/08/13 07:39:41;;;;;;;11.57;3.03;;;;;;;;;;5110517;28;20043;-66
2023/08/13 07:42:08;;;;;;;10.07;3.00;;;;;;;;;;5110631;28;20099;-66
2023/08/13 07:44:35;;;;;;;17.10;3.35;;;;;;;;;;5110764;28;20410;-66
2023/08/13 07:47:00;;;;;;;11.20;3.30;;;;;;;;;;5109476;28;20040;-66
2023/08/13 07:49:27;;;;;;;12.45;3.05;;;;;;;;;;5110074;28;20039;-66
2023/08/13 07:51:53;;;;;;;9.20;2.55;;;;;;;;;;5110647;28;20040;-66
2023/08/13 07:54:22;;;;;;;9.77;2.95;;;;;;;;;;5110074;28;20140;-66
2023/08/13 07:56:48;;;;;;;10.48;2.63;;;;;;;;;;5110275;28;20043;-66
2023/08/13 07:59:14;;;;;;;10.88;3.05;;;;;;;;;;5110401;28;20046;-66
2023/08/13 08:01:43;;;;;;;10.40;2.90;;;;;;;;;;5109933;28;20039;-66
2023/08/13 08:04:09;;;;;;;10.65;2.95;;;;;;;;;;5110258;28;20147;-66
2023/08/13 08:06:35;;;;;;;15.73;2.88;;;;;;;;;;5110353;28;20082;-66
2023/08/13 08:09:02;;;;;;;14.25;3.05;;;;;;;;;;5109350;28;20044;-66
2023/08/13 08:11:28;;;;;;;11.23;2.42;;;;;;;;;;5109970;28;20044;-66
2023/08/13 08:13:54;;;;;;;9.50;2.60;;;;;;;;;;5109863;28;20108;-66
2023/08/13 08:16:20;;;;;;;13.40;2.65;;;;;;;;;;5110004;28;20082;-66
2023/08/13 08:18:46;;;;;;;13.68;3.15;;;;;;;;;;5110019;28;20075;-66
2023/08/13 08:21:12;;;;;;;13.18;2.80;;;;;;;;;;5110285;28;20077;-66
2023/08/13 08:23:38;;;;;;;10.48;2.20;;;;;;;;;;5109789;28;20043;-66
2023/08/13 08:26:04;;;;;;;9.43;2.50;;;;;;;;;;5099515;28;20429;-66
2023/08/13 08:28:30;;;;;;;10.88;2.35;;;;;;;;;;5089563;28;20526;-66
2023/08/13 08:30:56;;;;;;;10.40;2.63;;;;;;;;;;5089611;28;20127;-66
2023/08/13 08:33:23;;;;;;;8.23;2.28;;;;;;;;;;5089043;28;20040;-66
2023/08/13 08:35:49;;;;;;;14.85;3.63;;;;;;;;;;5089297;28;20044;-66
2023/08/13 08:38:15;;;;;;;6.85;2.38;;;;;;;;;;5089368;28;20040;-66
2023/08/13 08:40:48;;;;;;;8.35;2.97;;;;;;;;;;5089343;28;20040;-66
2023/08/13 08:43:15;;;;;;;9.35;2.10;;;;;;;;;;5089689;28;20363;-66
2023/08/13 08:45:41;;;;;;;8.80;2.28;;;;;;;;;;5089620;28;20040;-66
2023/08/13 08:48:07;;;;;;;9.85;2.08;;;;;;;;;;5089353;28;20127;-66
2023/08/13 08:50:36;;;;;;;6.35;2.20;;;;;;;;;;5089638;28;20111;-66
2023/08/13 08:53:02;;;;;;;9.18;2.40;;;;;;;;;;5089385;28;20410;-66
2023/08/13 08:55:28;;;;;;;9.82;2.38;;;;;;;;;;5089409;28;20054;-66
2023/08/13 08:57:54;;;;;;;6.70;1.98;;;;;;;;;;5090617;28;20503;-66
2023/08/13 09:00:20;;;;;;;7.20;2.15;;;;;;;;;;5093266;28;20048;-66
2023/08/13 09:02:46;;;;;;;12.80;2.30;;;;;;;;;;5092575;28;20036;-66
2023/08/13 09:05:12;;;;;;;5.90;1.95;;;;;;;;;;5093039;28;20390;-66
2023/08/13 09:07:42;;;;;;;10.10;2.25;;;;;;;;;;5095364;28;20039;-66
2023/08/13 09:10:08;;;;;;;10.95;2.42;;;;;;;;;;5145993;27;20367;-66
2023/08/13 09:12:35;;;;;;;6.72;2.30;;;;;;;;;;5113212;28;20490;-66
2023/08/13 09:15:09;;;;;;;8.48;1.92;;;;;;;;;;5146447;27;20043;-66
2023/08/13 09:17:35;;;;;;;7.40;1.85;;;;;;;;;;5112801;28;20088;-66
2023/08/13 09:20:08;;;;;;;9.25;2.33;;;;;;;;;;5113305;28;20044;-66
2023/08/13 09:22:34;;;;;;;8.07;2.35;;;;;;;;;;5113416;28;20450;-66
2023/08/13 09:25:02;;;;;;;9.18;2.35;;;;;;;;;;5113058;28;20052;-66
2023/08/13 09:27:29;;;;;;;6.88;2.25;;;;;;;;;;5113265;28;20114;-66
2023/08/13 09:29:58;;;;;;;9.52;2.13;;;;;;;;;;5113285;28;20040;-66
2023/08/13 09:32:24;;;;;;;7.60;2.00;;;;;;;;;;5113234;28;20043;-66
2023/08/13 09:34:53;;;;;;;6.57;2.10;;;;;;;;;;5112907;28;20044;-66
2023/08/13 09:37:19;;;;;;;5.93;2.13;;;;;;;;;;5113116;28;20251;-66
2023/08/13 09:39:46;;;;;;;6.82;1.70;;;;;;;;;;5112589;28;20482;-66
2023/08/13 09:42:12;;;;;;;4.65;1.60;;;;;;;;;;5112842;28;20047;-66
2023/08/13 09:44:38;;;;;;;6.85;2.33;;;;;;;;;;5112526;28;20108;-66
2023/08/13 09:47:06;;;;;;;6.45;1.70;;;;;;;;;;5112630;28;20036;-66
2023/08/13 09:49:33;;;;;;;8.20;1.65;;;;;;;;;;5112433;28;20036;-66
2023/08/13 09:52:00;;;;;;;7.25;2.20;;;;;;;;;;5112893;28;20035;-66
2023/08/13 09:54:44;;;;;;;9.75;1.70;;;;;;;;;;5112135;28;20118;-66
2023/08/13 09:57:13;;;;;;;6.25;1.58;;;;;;;;;;5112424;28;20104;-66
2023/08/13 09:59:39;;;;;;;6.47;1.58;;;;;;;;;;5112570;28;20513;-66
2023/08/13 10:02:08;;;;;;;6.93;1.77;;;;;;;;;;5112108;28;20040;-66
2023/08/13 10:04:35;;;;;;;4.55;1.50;;;;;;;;;;5110795;28;20173;-66
2023/08/13 10:07:01;;;;;;;5.40;1.23;;;;;;;;;;5112486;28;20046;-66
2023/08/13 10:09:28;;;;;;;4.68;1.20;;;;;;;;;;5111033;28;20118;-66
2023/08/13 10:11:55;;;;;;;4.40;1.23;;;;;;;;;;5111989;28;20036;-66
2023/08/13 10:14:21;;;;;;;6.20;1.77;;;;;;;;;;5111717;28;20068;-66
2023/08/13 10:16:47;;;;;;;4.65;1.48;;;;;;;;;;5111756;28;20043;-66
2023/08/13 10:19:13;;;;;;;3.95;1.13;;;;;;;;;;5111824;28;20495;-66
2023/08/13 10:21:39;;;;;;;5.35;1.13;;;;;;;;;;5112265;28;20047;-66
2023/08/13 10:24:06;;;;;;;3.40;1.00;;;;;;;;;;5111577;28;20044;-66
2023/08/13 10:26:32;;;;;;;3.33;1.20;;;;;;;;;;5097467;28;20040;-66
2023/08/13 10:28:58;;;;;;;3.63;1.27;;;;;;;;;;5091301;28;20032;-66
2023/08/13 10:31:25;;;;;;;5.07;1.17;;;;;;;;;;5091119;28;20115;-66
2023/08/13 10:34:01;;;;;;;4.10;1.10;;;;;;;;;;5091411;28;20694;-66
2023/08/13 10:36:43;;;;;;;4.35;1.50;;;;;;;;;;5091306;28;20459;-66
2023/08/13 10:39:28;;;;;;;3.88;1.00;;;;;;;;;;5091152;28;20075;-66
2023/08/13 10:41:54;;;;;;;2.42;0.60;;;;;;;;;;5091211;28;20046;-66
2023/08/13 10:44:28;;;;;;;3.47;1.00;;;;;;;;;;5090626;28;20048;-66
2023/08/13 10:46:54;;;;;;;2.85;0.90;;;;;;;;;;5091353;28;20426;-66
2023/08/13 10:49:21;;;;;;;3.33;1.13;;;;;;;;;;5090604;28;20066;-66
2023/08/13 10:51:51;;;;;;;2.92;1.00;;;;;;;;;;5090761;28;20075;-66
2023/08/13 10:54:19;;;;;;;3.92;0.80;;;;;;;;;;5091035;28;20083;-66
2023/08/13 10:56:56;;;;;;;6.22;1.17;;;;;;;;;;5090991;28;20086;-66
2023/08/13 10:59:29;;;;;;;3.55;1.08;;;;;;;;;;5090272;28;20036;-66
2023/08/13 11:02:14;;;;;;;3.95;0.80;;;;;;;;;;5090905;28;20487;-66
2023/08/13 11:04:42;;;;;;;2.78;0.93;;;;;;;;;;5090425;28;20131;-66
2023/08/13 11:07:09;;;;;;;2.33;1.08;;;;;;;;;;5090234;28;20497;-66
2023/08/13 11:09:36;;;;;;;2.30;0.93;;;;;;;;;;5109497;28;20042;-66
2023/08/13 11:12:02;;;;;;;4.25;0.82;;;;;;;;;;5109867;28;20132;-66
2023/08/13 11:14:29;;;;;;;5.20;1.10;;;;;;;;;;5109763;28;20052;-66
2023/08/13 11:16:55;;;;;;;3.63;1.00;;;;;;;;;;5110912;28;20051;-66
2023/08/13 11:19:22;;;;;;;5.55;1.02;;;;;;;;;;5110525;28;20050;-66
2023/08/13 11:21:48;;;;;;;6.03;1.17;;;;;;;;;;5108366;28;20055;-66
2023/08/13 11:24:14;;;;;;;3.63;1.20;;;;;;;;;;5110986;28;20079;-66
2023/08/13 11:26:40;;;;;;;4.60;1.05;;;;;;;;;;5110425;28;20044;-66
2023/08/13 11:29:06;;;;;;;5.15;1.17;;;;;;;;;;5110276;28;20042;-66
2023/08/13 11:31:38;;;;;;;3.15;1.08;;;;;;;;;;5110386;28;20118;-66
2023/08/13 11:34:04;;;;;;;6.40;1.42;;;;;;;;;;5110148;28;20123;-66
2023/08/13 11:36:31;;;;;;;3.97;1.10;;;;;;;;;;5110067;28;20047;-66
2023/08/13 11:38:57;;;;;;;6.60;1.23;;;;;;;;;;5110690;28;20039;-66
2023/08/13 11:41:23;;;;;;;3.33;1.10;;;;;;;;;;5110201;28;20047;-66
2023/08/13 11:43:53;;;;;;;6.18;1.60;;;;;;;;;;5109394;28;20100;-66
2023/08/13 11:46:19;;;;;;;5.20;1.02;;;;;;;;;;5110582;28;20038;-66
2023/08/13 11:48:45;;;;;;;5.30;1.20;;;;;;;;;;5109941;28;20473;-66
2023/08/13 11:51:22;;;;;;;3.15;1.20;;;;;;;;;;5110025;28;20496;-66
2023/08/13 11:53:48;;;;;;;11.02;1.60;;;;;;;;;;5109904;28;20065;-66
2023/08/13 11:56:16;;;;;;;3.45;1.30;;;;;;;;;;5110284;28;20039;-66
2023/08/13 11:58:42;;;;;;;7.57;1.40;;;;;;;;;;5109617;28;20117;-66
2023/08/13 12:01:10;;;;;;;4.53;1.58;;;;;;;;;;5110171;28;20043;-66
2023/08/13 12:03:36;;;;;;;5.68;1.83;;;;;;;;;;5109968;28;20481;-66
2023/08/13 12:06:02;;;;;;;7.90;1.95;;;;;;;;;;5109502;28;20043;-66
2023/08/13 12:08:29;;;;;;;6.75;1.88;;;;;;;;;;5110046;28;20096;-66
2023/08/13 12:10:57;;;;;;;4.28;1.65;;;;;;;;;;5143037;27;20039;-66
2023/08/13 12:13:23;;;;;;;5.18;1.63;;;;;;;;;;5109131;28;20059;-66
2023/08/13 12:15:49;;;;;;;4.75;2.10;;;;;;;;;;5109555;28;20054;-66
2023/08/13 12:18:15;;;;;;;6.80;1.88;;;;;;;;;;5109451;28;20067;-66
2023/08/13 12:20:41;;;;;;;7.07;1.75;;;;;;;;;;5109602;28;20035;-66
2023/08/13 12:23:07;;;;;;;5.28;1.50;;;;;;;;;;5110081;28;20035;-66
2023/08/13 12:25:33;;;;;;;7.70;1.92;;;;;;;;;;5103740;28;20060;-66
2023/08/13 12:27:59;;;;;;;7.43;1.98;;;;;;;;;;5089349;28;20036;-66
2023/08/13 12:30:25;;;;;;;6.18;2.03;;;;;;;;;;5089312;28;20449;-66
2023/08/13 12:32:51;;;;;;;8.70;2.10;;;;;;;;;;5092109;28;20048;-66
2023/08/13 12:35:18;;;;;;;9.98;1.70;;;;;;;;;;5093763;28;20387;-66
2023/08/13 12:37:44;;;;;;;8.32;2.05;;;;;;;;;;5093292;28;20513;-66
2023/08/13 12:40:10;;;;;;;15.82;2.30;;;;;;;;;;5093584;28;20044;-66
2023/08/13 12:42:37;;;;;;;11.57;2.13;;;;;;;;;;5093721;28;20526;-66
2023/08/13 12:45:06;;;;;;;6.75;1.70;;;;;;;;;;5093110;28;20075;-66
2023/08/13 12:47:32;;;;;;;8.48;2.10;;;;;;;;;;5093274;28;20095;-66
2023/08/13 12:49:58;;;;;;;7.28;2.22;;;;;;;;;;5093409;28;20452;-66
2023/08/13 12:52:24;;;;;;;7.30;1.85;;;;;;;;;;5092774;28;20111;-66
2023/08/13 12:54:51;;;;;;;7.15;2.10;;;;;;;;;;5092783;28;20044;-66
2023/08/13 12:57:17;;;;;;;8.77;2.47;;;;;;;;;;5093243;28;20048;-66
2023/08/13 12:59:43;;;;;;;7.70;1.77;;;;;;;;;;5092561;28;20032;-66
2023/08/13 13:02:09;;;;;;;9.30;2.20;;;;;;;;;;5109032;28;20422;-66
2023/08/13 13:04:35;;;;;;;6.18;1.75;;;;;;;;;;5092845;28;20036;-66
2023/08/13 13:07:01;;;;;;;8.10;2.20;;;;;;;;;;5092502;28;20050;-66
2023/08/13 13:09:27;;;;;;;7.95;2.03;;;;;;;;;;5110534;28;20088;-66
2023/08/13 13:11:53;;;;;;;7.88;2.10;;;;;;;;;;5113109;28;20038;-66
2023/08/13 13:14:19;;;;;;;6.53;1.70;;;;;;;;;;5112279;28;20514;-66
2023/08/13 13:16:45;;;;;;;8.13;2.72;;;;;;;;;;5112954;28;20097;-66
2023/08/13 13:19:11;;;;;;;8.32;2.10;;;;;;;;;;5113258;28;20089;-66
2023/08/13 13:21:37;;;;;;;7.97;1.88;;;;;;;;;;5113198;28;20043;-66
2023/08/13 13:24:03;;;;;;;6.95;1.90;;;;;;;;;;5112747;28;20048;-66
2023/08/13 13:26:29;;;;;;;5.10;2.03;;;;;;;;;;5113028;28;20635;-66
2023/08/13 13:28:55;;;;;;;8.30;2.20;;;;;;;;;;5111206;28;20115;-66
2023/08/13 13:31:21;;;;;;;8.40;2.03;;;;;;;;;;5112864;28;20458;-66
2023/08/13 13:33:47;;;;;;;9.23;2.60;;;;;;;;;;5112831;28;20040;-66
2023/08/13 13:36:13;;;;;;;7.47;2.38;;;;;;;;;;5112251;28;20081;-66
2023/08/13 13:38:39;;;;;;;6.47;1.85;;;;;;;;;;5094279;28;20075;-66
2023/08/13 13:41:05;;;;;;;7.97;1.95;;;;;;;;;;5112897;28;20382;-66
2023/08/13 13:43:31;;;;;;;6.95;1.83;;;;;;;;;;5111134;28;20467;-66
2023/08/13 13:45:57;;;;;;;7.40;2.25;;;;;;;;;;5112436;28;20059;-66
2023/08/13 13:48:23;;;;;;;7.28;2.20;;;;;;;;;;5112288;28;20039;-66
2023/08/13 13:50:49;;;;;;;10.68;2.20;;;;;;;;;;5112191;28;20489;-66
2023/08/13 13:53:15;;;;;;;5.88;1.85;;;;;;;;;;5112498;28;20120;-66
2023/08/13 13:55:41;;;;;;;4.68;1.85;;;;;;;;;;5112521;28;20117;-66
2023/08/13 13:58:08;;;;;;;11.20;2.17;;;;;;;;;;5112238;28;20047;-66
2023/08/13 14:00:35;;;;;;;10.88;2.58;;;;;;;;;;5112032;28;20047;-66
2023/08/13 14:03:01;;;;;;;6.70;2.28;;;;;;;;;;5112170;28;20051;-66
2023/08/13 14:05:27;;;;;;;7.70;1.88;;;;;;;;;;5111821;28;20036;-66
2023/08/13 14:07:53;;;;;;;5.57;2.40;;;;;;;;;;5112112;28;20072;-66
2023/08/13 14:10:19;;;;;;;7.18;2.13;;;;;;;;;;5112407;28;20031;-66
2023/08/13 14:12:45;;;;;;;10.07;2.00;;;;;;;;;;5111363;28;20051;-66
2023/08/13 14:15:11;;;;;;;11.02;1.90;;;;;;;;;;5111806;28;20036;-66
2023/08/13 14:17:37;;;;;;;7.47;1.58;;;;;;;;;;5111869;28;20035;-66
2023/08/13 14:20:04;;;;;;;12.20;2.28;;;;;;;;;;5111596;28;20073;-66
2023/08/13 14:22:33;;;;;;;9.25;2.13;;;;;;;;;;5111884;28;20066;-66
2023/08/13 14:24:59;;;;;;;10.77;2.20;;;;;;;;;;5110492;28;20418;-66
2023/08/13 14:27:25;;;;;;;8.73;2.47;;;;;;;;;;5091046;28;20037;-66
2023/08/13 14:29:51;;;;;;;9.02;2.28;;;;;;;;;;5091374;28;20145;-66
2023/08/13 14:32:17;;;;;;;8.13;2.53;;;;;;;;;;5091109;28;20038;-66